createdAt,value
2018-01-07T00:01:08.677Z,4.90
2018-01-07T00:03:36.150Z,4.90
2018-01-07T00:06:03.626Z,4.90
2018-01-07T00:08:31.090Z,4.90
2018-01-07T00:10:58.653Z,4.80
2018-01-07T00:13:26.113Z,4.80
2018-01-07T00:15:54.440Z,4.70
2018-01-07T00:18:21.939Z,4.70
2018-01-07T00:20:49.433Z,4.70
2018-01-07T00:23:16.890Z,4.70
2018-01-07T00:25:44.350Z,4.70
2018-01-07T00:28:11.830Z,4.70
2018-01-07T00:30:39.290Z,4.70
2018-01-07T00:33:06.769Z,4.70
2018-01-07T00:35:34.246Z,4.60
2018-01-07T00:38:02.494Z,4.60
2018-01-07T00:40:30.012Z,4.60
2018-01-07T00:42:57.496Z,4.60
2018-01-07T00:45:24.977Z,4.60
2018-01-07T00:47:52.476Z,4.60
2018-01-07T00:50:19.954Z,4.60
2018-01-07T00:52:47.426Z,4.50
2018-01-07T00:55:14.897Z,4.50
2018-01-07T00:57:42.419Z,4.50
2018-01-07T01:00:09.894Z,4.50
2018-01-07T01:02:37.378Z,4.40
2018-01-07T01:05:04.866Z,4.40
2018-01-07T01:07:32.366Z,4.40
2018-01-07T01:09:59.858Z,4.40
2018-01-07T01:12:28.106Z,4.30
2018-01-07T01:14:55.562Z,4.30
2018-01-07T01:17:23.041Z,4.30
2018-01-07T01:19:50.502Z,4.20
2018-01-07T01:22:18.753Z,4.20
2018-01-07T01:24:46.209Z,4.20
2018-01-07T01:27:13.671Z,4.20
2018-01-07T01:29:41.152Z,4.10
2018-01-07T01:32:09.378Z,4.10
2018-01-07T01:34:36.922Z,4.10
2018-01-07T01:37:04.424Z,4.10
2018-01-07T01:39:32.646Z,4.00
2018-01-07T01:42:00.212Z,4.00
2018-01-07T01:44:27.678Z,4.10
2018-01-07T01:46:55.141Z,4.00
2018-01-07T01:49:23.554Z,4.00
2018-01-07T01:51:51.019Z,4.00
2018-01-07T01:54:18.491Z,4.00
2018-01-07T01:56:46.735Z,4.00
2018-01-07T01:59:14.297Z,4.00
2018-01-07T02:01:41.782Z,4.00
2018-01-07T02:04:09.249Z,4.00
2018-01-07T02:06:36.707Z,4.00
2018-01-07T02:09:04.182Z,4.00
2018-01-07T02:11:31.674Z,4.00
2018-01-07T02:13:59.146Z,3.90
2018-01-07T02:16:26.611Z,3.90
2018-01-07T02:18:54.857Z,3.90
2018-01-07T02:21:22.317Z,3.90
2018-01-07T02:23:49.797Z,3.90
2018-01-07T02:26:18.026Z,3.90
2018-01-07T02:28:45.505Z,3.90
2018-01-07T02:31:12.982Z,3.90
2018-01-07T02:33:41.210Z,3.90
2018-01-07T02:36:08.681Z,3.90
2018-01-07T02:38:36.156Z,3.90
2018-01-07T02:41:03.618Z,4.00
2018-01-07T02:43:31.171Z,3.90
2018-01-07T02:45:58.645Z,4.00
2018-01-07T02:48:26.884Z,4.00
2018-01-07T02:50:54.355Z,4.00
2018-01-07T02:53:21.829Z,4.00
2018-01-07T02:55:50.090Z,4.00
2018-01-07T02:58:17.556Z,4.00
2018-01-07T03:00:45.019Z,4.00
2018-01-07T03:03:13.278Z,4.10
2018-01-07T03:05:40.738Z,4.10
2018-01-07T03:08:08.202Z,4.10
2018-01-07T03:10:36.448Z,4.10
2018-01-07T03:13:03.950Z,4.10
2018-01-07T03:15:32.269Z,4.10
2018-01-07T03:17:59.734Z,4.10
2018-01-07T03:20:27.215Z,4.10
2018-01-07T03:22:54.675Z,4.10
2018-01-07T03:25:22.141Z,4.10
2018-01-07T03:27:50.390Z,4.10
2018-01-07T03:30:17.871Z,4.10
2018-01-07T03:32:46.094Z,4.10
2018-01-07T03:35:13.593Z,4.10
2018-01-07T03:37:41.054Z,4.10
2018-01-07T03:40:09.278Z,4.10
2018-01-07T03:42:36.763Z,4.10
2018-01-07T03:45:05.858Z,4.10
2018-01-07T03:47:33.381Z,4.10
2018-01-07T03:50:00.851Z,4.20
2018-01-07T03:52:28.322Z,4.10
2018-01-07T03:54:55.778Z,4.10
2018-01-07T03:57:23.255Z,4.20
2018-01-07T03:59:50.722Z,4.20
2018-01-07T04:02:18.985Z,4.20
2018-01-07T04:04:46.445Z,4.20
2018-01-07T04:07:13.926Z,4.20
2018-01-07T04:09:41.403Z,4.20
2018-01-07T04:12:08.878Z,4.20
2018-01-07T04:14:36.341Z,4.20
2018-01-07T04:17:03.808Z,4.20
2018-01-07T04:19:31.278Z,4.20
2018-01-07T04:21:58.742Z,4.20
2018-01-07T04:24:26.247Z,4.20
2018-01-07T04:26:53.702Z,4.20
2018-01-07T04:29:21.207Z,4.20
2018-01-07T04:31:49.462Z,4.20
2018-01-07T04:34:16.934Z,4.20
2018-01-07T04:36:44.393Z,4.20
2018-01-07T04:39:11.869Z,4.30
2018-01-07T04:41:40.122Z,4.30
2018-01-07T04:44:07.589Z,4.30
2018-01-07T04:46:35.134Z,4.20
2018-01-07T04:49:02.602Z,4.30
2018-01-07T04:51:30.107Z,4.20
2018-01-07T04:53:57.584Z,4.30
2018-01-07T04:56:25.071Z,4.30
2018-01-07T04:58:52.530Z,4.30
2018-01-07T05:01:19.995Z,4.30
2018-01-07T05:03:48.238Z,4.30
2018-01-07T05:06:15.697Z,4.30
2018-01-07T05:08:43.262Z,4.30
2018-01-07T05:11:10.728Z,4.30
2018-01-07T05:13:38.201Z,4.30
2018-01-07T05:16:06.432Z,4.30
2018-01-07T05:18:33.969Z,4.30
2018-01-07T05:21:01.438Z,4.30
2018-01-07T05:23:28.914Z,4.30
2018-01-07T05:25:56.386Z,4.30
2018-01-07T05:28:24.043Z,4.30
2018-01-07T05:30:51.510Z,4.30
2018-01-07T05:33:18.977Z,4.30
2018-01-07T05:35:47.205Z,4.30
2018-01-07T05:38:14.678Z,4.30
2018-01-07T05:40:42.138Z,4.30
2018-01-07T05:43:09.617Z,4.30
2018-01-07T05:45:37.854Z,4.40
2018-01-07T05:48:05.314Z,4.40
2018-01-07T05:50:32.795Z,4.40
2018-01-07T05:53:00.249Z,4.30
2018-01-07T05:55:28.497Z,4.30
2018-01-07T05:57:55.973Z,4.30
2018-01-07T06:00:23.541Z,4.20
2018-01-07T06:02:51.090Z,4.30
2018-01-07T06:05:18.607Z,4.30
2018-01-07T06:07:46.067Z,4.30
2018-01-07T06:10:13.526Z,4.30
2018-01-07T06:12:41.002Z,4.30
2018-01-07T06:15:08.473Z,4.20
2018-01-07T06:17:35.942Z,4.20
2018-01-07T06:20:03.405Z,4.20
2018-01-07T06:22:31.629Z,4.20
2018-01-07T06:24:59.102Z,4.20
2018-01-07T06:27:26.677Z,4.20
2018-01-07T06:29:54.157Z,4.20
2018-01-07T06:32:22.394Z,4.20
2018-01-07T06:34:49.863Z,4.10
2018-01-07T06:37:17.342Z,4.20
2018-01-07T06:39:45.602Z,4.20
2018-01-07T06:42:13.066Z,4.10
2018-01-07T06:44:41.294Z,4.20
2018-01-07T06:47:08.771Z,4.10
2018-01-07T06:49:36.245Z,4.20
2018-01-07T06:52:03.710Z,4.20
2018-01-07T06:54:31.990Z,4.10
2018-01-07T06:57:00.231Z,4.20
2018-01-07T06:59:27.694Z,4.10
2018-01-07T07:01:55.158Z,4.20
2018-01-07T07:04:22.633Z,4.10
2018-01-07T07:06:50.858Z,4.10
2018-01-07T07:09:18.331Z,4.10
2018-01-07T07:11:45.806Z,4.10
2018-01-07T07:14:13.264Z,4.10
2018-01-07T07:16:40.734Z,4.10
2018-01-07T07:19:08.979Z,4.10
2018-01-07T07:21:36.434Z,4.10
2018-01-07T07:24:03.915Z,4.10
2018-01-07T07:26:32.897Z,4.00
2018-01-07T07:29:00.366Z,4.00
2018-01-07T07:31:27.853Z,4.10
2018-01-07T07:33:55.319Z,4.10
2018-01-07T07:36:22.806Z,4.10
2018-01-07T07:38:50.265Z,4.10
2018-01-07T07:41:17.739Z,4.10
2018-01-07T07:43:45.197Z,4.10
2018-01-07T07:46:12.666Z,4.10
2018-01-07T07:48:40.930Z,4.10
2018-01-07T07:51:08.401Z,4.10
2018-01-07T07:53:35.911Z,4.00
2018-01-07T07:56:03.338Z,4.00
2018-01-07T07:58:30.815Z,4.00
2018-01-07T08:00:58.294Z,4.00
2018-01-07T08:03:25.746Z,4.00
2018-01-07T08:05:53.228Z,4.00
2018-01-07T08:08:20.690Z,4.00
2018-01-07T08:10:48.934Z,4.00
2018-01-07T08:13:16.469Z,4.00
2018-01-07T08:15:43.926Z,4.00
2018-01-07T08:18:11.395Z,4.00
2018-01-07T08:20:38.866Z,4.00
2018-01-07T08:23:06.326Z,4.00
2018-01-07T08:25:33.794Z,4.00
2018-01-07T08:28:01.265Z,4.00
2018-01-07T08:30:29.498Z,4.00
2018-01-07T08:32:56.974Z,4.00
2018-01-07T08:35:24.438Z,4.00
2018-01-07T08:37:51.916Z,4.00
2018-01-07T08:40:20.139Z,4.00
2018-01-07T08:42:47.611Z,4.00
2018-01-07T08:45:15.067Z,4.00
2018-01-07T08:47:42.531Z,4.00
2018-01-07T08:50:10.003Z,4.00
2018-01-07T08:52:37.495Z,4.00
2018-01-07T08:55:04.954Z,3.90
2018-01-07T08:57:32.418Z,4.00
2018-01-07T08:59:59.922Z,4.00
2018-01-07T09:02:27.378Z,3.90
2018-01-07T09:04:54.858Z,3.90
2018-01-07T09:07:23.165Z,3.90
2018-01-07T09:09:50.645Z,3.80
2018-01-07T09:12:18.109Z,3.90
2018-01-07T09:14:45.585Z,3.80
2018-01-07T09:17:13.057Z,3.80
2018-01-07T09:19:41.282Z,3.70
2018-01-07T09:22:08.778Z,3.70
2018-01-07T09:24:36.232Z,3.70
2018-01-07T09:27:03.699Z,3.80
2018-01-07T09:29:31.925Z,3.70
2018-01-07T09:31:59.399Z,3.70
2018-01-07T09:34:26.870Z,3.70
2018-01-07T09:36:54.359Z,3.70
2018-01-07T09:39:22.566Z,3.70
2018-01-07T09:41:50.042Z,3.70
2018-01-07T09:44:17.516Z,3.70
2018-01-07T09:46:44.973Z,3.70
2018-01-07T09:49:12.446Z,3.70
2018-01-07T09:51:40.653Z,3.70
2018-01-07T09:54:08.130Z,3.70
2018-01-07T09:56:35.606Z,3.80
2018-01-07T09:59:03.067Z,3.80
2018-01-07T10:01:31.085Z,3.70
2018-01-07T10:03:58.567Z,3.80
2018-01-07T10:06:26.026Z,3.80
2018-01-07T10:08:53.503Z,3.70
2018-01-07T10:11:20.952Z,3.70
2018-01-07T10:13:48.418Z,3.70
2018-01-07T10:16:15.874Z,3.80
2018-01-07T10:18:43.339Z,3.80
2018-01-07T10:21:11.590Z,3.70
2018-01-07T10:23:39.037Z,3.70
2018-01-07T10:26:06.520Z,3.80
2018-01-07T10:28:33.993Z,3.80
2018-01-07T10:31:02.218Z,3.80
2018-01-07T10:33:29.686Z,3.70
2018-01-07T10:35:57.159Z,3.70
2018-01-07T10:38:24.634Z,3.70
2018-01-07T10:40:52.863Z,3.80
2018-01-07T10:43:20.334Z,3.80
2018-01-07T10:45:47.810Z,3.80
2018-01-07T10:48:15.271Z,3.70
2018-01-07T10:50:42.742Z,3.80
2018-01-07T10:53:10.970Z,3.70
2018-01-07T10:55:38.451Z,3.70
2018-01-07T10:58:05.964Z,3.70
2018-01-07T11:00:39.190Z,3.70
2018-01-07T11:03:06.646Z,3.80
2018-01-07T11:05:34.683Z,3.80
2018-01-07T11:08:02.142Z,3.80
2018-01-07T11:10:29.622Z,3.70
2018-01-07T11:12:57.088Z,3.80
2018-01-07T11:15:24.579Z,3.80
2018-01-07T11:17:52.841Z,3.90
2018-01-07T11:20:20.273Z,3.80
2018-01-07T11:22:47.746Z,3.90
2018-01-07T11:25:15.205Z,3.80
2018-01-07T11:27:43.463Z,3.80
2018-01-07T11:30:10.911Z,3.80
2018-01-07T11:32:38.382Z,3.80
2018-01-07T11:35:05.854Z,3.70
2018-01-07T11:37:34.080Z,3.90
2018-01-07T11:40:01.548Z,3.90
2018-01-07T11:42:29.007Z,3.80
2018-01-07T11:44:56.483Z,3.80
2018-01-07T11:47:23.941Z,3.80
2018-01-07T11:49:51.419Z,3.70
2018-01-07T11:52:19.675Z,3.80
2018-01-07T11:54:47.150Z,3.70
2018-01-07T11:57:15.366Z,3.80
2018-01-07T11:59:42.847Z,3.70
2018-01-07T12:02:10.340Z,3.80
2018-01-07T12:04:38.570Z,3.70
2018-01-07T12:07:06.024Z,3.70
2018-01-07T12:09:33.506Z,3.60
2018-01-07T12:12:00.962Z,3.60
2018-01-07T12:14:28.473Z,3.50
2018-01-07T12:16:55.930Z,3.50
2018-01-07T12:19:23.390Z,3.50
2018-01-07T12:21:50.862Z,3.50
2018-01-07T12:24:18.331Z,3.50
2018-01-07T12:26:45.801Z,3.50
2018-01-07T12:29:13.277Z,3.50
2018-01-07T12:31:41.506Z,3.50
2018-01-07T12:34:08.967Z,3.40
2018-01-07T12:36:36.441Z,3.50
2018-01-07T12:39:03.907Z,3.50
2018-01-07T12:41:31.374Z,3.50
2018-01-07T12:43:58.834Z,3.50
2018-01-07T12:46:27.068Z,3.50
2018-01-07T12:48:54.920Z,3.40
2018-01-07T12:51:22.370Z,3.50
2018-01-07T12:53:49.834Z,3.50
2018-01-07T12:56:17.306Z,3.50
2018-01-07T12:58:44.767Z,3.60
2018-01-07T13:01:12.235Z,3.60
2018-01-07T13:03:39.698Z,3.60
2018-01-07T13:06:07.175Z,3.60
2018-01-07T13:08:35.432Z,3.50
2018-01-07T13:11:02.940Z,3.50
2018-01-07T13:13:30.401Z,3.50
2018-01-07T13:15:57.857Z,3.50
2018-01-07T13:18:25.322Z,3.50
2018-01-07T13:20:52.810Z,3.50
2018-01-07T13:23:20.278Z,3.50
2018-01-07T13:25:48.498Z,3.50
2018-01-07T13:28:15.995Z,3.50
2018-01-07T13:30:43.458Z,3.50
2018-01-07T13:33:10.922Z,3.40
2018-01-07T13:35:38.387Z,3.40
2018-01-07T13:38:06.629Z,3.40
2018-01-07T13:40:34.098Z,3.40
2018-01-07T13:43:01.566Z,3.40
2018-01-07T13:45:29.810Z,3.40
2018-01-07T13:47:57.282Z,3.40
2018-01-07T13:50:24.734Z,3.40
2018-01-07T13:52:52.201Z,3.30
2018-01-07T13:55:19.682Z,3.40
2018-01-07T13:57:47.167Z,3.40
2018-01-07T14:00:14.641Z,3.40
2018-01-07T14:02:42.118Z,3.40
2018-01-07T14:05:09.586Z,3.30
2018-01-07T14:07:37.146Z,3.30
2018-01-07T14:10:04.614Z,3.30
2018-01-07T14:12:32.857Z,3.20
2018-01-07T14:15:00.322Z,3.20
2018-01-07T14:17:27.783Z,3.10
2018-01-07T14:19:55.267Z,3.20
2018-01-07T14:22:22.749Z,3.20
2018-01-07T14:24:50.206Z,3.10
2018-01-07T14:27:17.666Z,3.10
2018-01-07T14:29:45.130Z,3.10
2018-01-07T14:32:12.610Z,3.10
2018-01-07T14:34:40.078Z,3.00
2018-01-07T14:37:07.545Z,3.00
2018-01-07T14:39:35.774Z,3.10
2018-01-07T14:42:03.243Z,3.00
2018-01-07T14:44:30.720Z,3.00
2018-01-07T14:46:58.952Z,3.00
2018-01-07T14:49:26.411Z,3.00
2018-01-07T14:51:53.878Z,3.00
2018-01-07T14:54:21.370Z,3.00
2018-01-07T14:56:50.341Z,3.00
2018-01-07T14:59:17.815Z,3.00
2018-01-07T15:01:45.287Z,3.00
2018-01-07T15:04:12.734Z,3.00
2018-01-07T15:06:40.203Z,2.90
2018-01-07T15:09:08.428Z,2.90
2018-01-07T15:11:35.901Z,2.80
2018-01-07T15:14:03.359Z,2.80
2018-01-07T15:16:30.850Z,2.70
2018-01-07T15:18:59.070Z,2.80
2018-01-07T15:21:26.542Z,2.80
2018-01-07T15:23:54.019Z,2.80
2018-01-07T15:26:21.533Z,2.70
2018-01-07T15:28:48.994Z,2.80
2018-01-07T15:31:16.465Z,2.80
2018-01-07T15:33:43.934Z,2.70
2018-01-07T15:36:11.574Z,2.70
2018-01-07T15:38:39.065Z,2.60
2018-01-07T15:41:06.520Z,2.70
2018-01-07T15:43:33.994Z,2.70
2018-01-07T15:46:02.223Z,2.70
2018-01-07T15:48:29.686Z,2.70
2018-01-07T15:50:57.198Z,2.80
2018-01-07T15:53:24.671Z,2.80
2018-01-07T15:55:52.155Z,2.90
2018-01-07T15:58:19.614Z,2.90
2018-01-07T16:00:47.118Z,2.90
2018-01-07T16:03:15.960Z,3.00
2018-01-07T16:05:43.433Z,2.90
2018-01-07T16:08:10.914Z,3.00
2018-01-07T16:10:39.219Z,3.00
2018-01-07T16:13:07.462Z,3.00
2018-01-07T16:15:35.697Z,3.00
2018-01-07T16:18:03.176Z,3.00
2018-01-07T16:20:30.682Z,3.00
2018-01-07T16:22:58.144Z,3.00
2018-01-07T16:25:25.631Z,3.00
2018-01-07T16:27:53.075Z,3.00
2018-01-07T16:30:20.566Z,3.00
2018-01-07T16:32:48.020Z,3.00
2018-01-07T16:35:16.271Z,3.00
2018-01-07T16:37:43.741Z,3.00
2018-01-07T16:40:11.815Z,3.00
2018-01-07T16:42:39.286Z,3.10
2018-01-07T16:45:07.513Z,3.00
2018-01-07T16:47:35.010Z,3.00
2018-01-07T16:50:02.510Z,3.10
2018-01-07T16:52:29.981Z,3.10
2018-01-07T16:54:57.923Z,3.10
2018-01-07T16:57:25.399Z,3.10
2018-01-07T16:59:52.879Z,3.10
2018-01-07T17:02:20.351Z,3.10
2018-01-07T17:04:47.826Z,3.10
2018-01-07T17:07:16.070Z,3.10
2018-01-07T17:09:43.538Z,3.10
2018-01-07T17:12:11.005Z,3.10
2018-01-07T17:14:38.481Z,3.10
2018-01-07T17:17:06.739Z,3.00
2018-01-07T17:19:34.211Z,3.00
2018-01-07T17:22:02.478Z,3.00
2018-01-07T17:24:30.723Z,3.00
2018-01-07T17:26:58.186Z,3.00
2018-01-07T17:29:25.665Z,3.00
2018-01-07T17:31:53.902Z,3.00
2018-01-07T17:34:21.362Z,2.90
2018-01-07T17:36:48.835Z,3.00
2018-01-07T17:39:16.291Z,2.90
2018-01-07T17:41:43.746Z,2.90
2018-01-07T17:44:11.235Z,2.90
2018-01-07T17:46:39.450Z,2.90
2018-01-07T17:49:06.923Z,2.90
2018-01-07T17:51:34.391Z,2.90
2018-01-07T17:54:01.854Z,2.90
2018-01-07T17:56:29.350Z,2.90
2018-01-07T17:58:56.811Z,2.80
2018-01-07T18:01:24.290Z,2.80
2018-01-07T18:03:51.829Z,2.90
2018-01-07T18:06:19.276Z,2.80
2018-01-07T18:08:46.759Z,2.80
2018-01-07T18:11:14.234Z,2.80
2018-01-07T18:13:41.700Z,2.80
2018-01-07T18:16:09.152Z,2.80
2018-01-07T18:18:36.622Z,2.80
2018-01-07T18:21:04.092Z,2.80
2018-01-07T18:23:32.318Z,2.70
2018-01-07T18:25:59.784Z,2.70
2018-01-07T18:28:27.266Z,2.70
2018-01-07T18:30:54.768Z,2.70
2018-01-07T18:33:22.235Z,2.70
2018-01-07T18:35:49.727Z,2.70
2018-01-07T18:38:17.184Z,2.60
2018-01-07T18:40:44.666Z,2.60
2018-01-07T18:43:12.916Z,2.60
2018-01-07T18:45:41.903Z,2.50
2018-01-07T18:48:09.378Z,2.60
2018-01-07T18:50:36.854Z,2.60
2018-01-07T18:53:05.078Z,2.50
2018-01-07T18:55:32.542Z,2.40
2018-01-07T18:58:00.064Z,2.40
2018-01-07T19:00:27.568Z,2.40
2018-01-07T19:02:55.031Z,2.40
2018-01-07T19:05:23.431Z,2.40
2018-01-07T19:07:51.686Z,2.40
2018-01-07T19:10:19.193Z,2.40
2018-01-07T19:12:46.665Z,2.40
2018-01-07T19:15:14.126Z,2.40
2018-01-07T19:17:41.602Z,2.50
2018-01-07T19:20:09.061Z,2.50
2018-01-07T19:22:36.510Z,2.50
2018-01-07T19:25:03.999Z,2.60
2018-01-07T19:27:32.210Z,2.60
2018-01-07T19:29:59.760Z,2.60
2018-01-07T19:32:27.214Z,2.60
2018-01-07T19:34:54.690Z,2.60
2018-01-07T19:37:22.198Z,2.60
2018-01-07T19:39:50.410Z,2.60
2018-01-07T19:42:17.938Z,2.70
2018-01-07T19:44:45.412Z,2.60
2018-01-07T19:47:13.362Z,2.60
2018-01-07T19:49:41.606Z,2.60
2018-01-07T19:52:09.877Z,2.60
2018-01-07T19:54:37.356Z,2.60
2018-01-07T19:57:05.635Z,2.60
2018-01-07T19:59:33.865Z,2.60
2018-01-07T20:02:01.327Z,2.50
2018-01-07T20:04:28.791Z,2.50
2018-01-07T20:06:56.267Z,2.50
2018-01-07T20:09:23.730Z,2.50
2018-01-07T20:11:51.959Z,2.50
2018-01-07T20:14:19.422Z,2.50
2018-01-07T20:16:46.880Z,2.50
2018-01-07T20:19:14.357Z,2.50
2018-01-07T20:21:41.829Z,2.50
2018-01-07T20:24:09.314Z,2.50
2018-01-07T20:26:36.786Z,2.50
2018-01-07T20:29:04.263Z,2.50
2018-01-07T20:31:31.723Z,2.50
2018-01-07T20:33:59.190Z,2.50
2018-01-07T20:36:26.746Z,2.50
2018-01-07T20:38:54.199Z,2.50
2018-01-07T20:41:21.689Z,2.50
2018-01-07T20:43:49.914Z,2.50
2018-01-07T20:46:17.366Z,2.50
2018-01-07T20:48:44.850Z,2.50
2018-01-07T20:51:12.471Z,2.40
2018-01-07T20:53:39.938Z,2.40
2018-01-07T20:56:07.423Z,2.40
2018-01-07T20:58:34.906Z,2.40
2018-01-07T21:01:03.158Z,2.40
2018-01-07T21:03:30.622Z,2.40
2018-01-07T21:05:58.128Z,2.40
2018-01-07T21:08:26.444Z,2.40
2018-01-07T21:10:53.922Z,2.40
2018-01-07T21:13:21.418Z,2.40
2018-01-07T21:15:48.865Z,2.40
2018-01-07T21:18:16.434Z,2.40
2018-01-07T21:20:43.894Z,2.40
2018-01-07T21:23:11.364Z,2.40
2018-01-07T21:25:38.819Z,2.40
2018-01-07T21:28:06.270Z,2.40
2018-01-07T21:30:33.818Z,2.40
2018-01-07T21:33:01.277Z,2.40
2018-01-07T21:35:28.738Z,2.40
2018-01-07T21:37:56.210Z,2.40
2018-01-07T21:40:23.702Z,2.40
2018-01-07T21:42:51.166Z,2.40
2018-01-07T21:45:18.722Z,2.30
2018-01-07T21:47:46.183Z,2.40
2018-01-07T21:50:14.414Z,2.40
2018-01-07T21:52:41.881Z,2.30
2018-01-07T21:55:09.404Z,2.40
2018-01-07T21:57:36.865Z,2.40
2018-01-07T22:00:16.265Z,2.30
2018-01-07T22:02:45.306Z,2.40
2018-01-07T22:05:15.306Z,2.30
2018-01-07T22:07:42.762Z,2.40
2018-01-07T22:10:10.221Z,2.40
2018-01-07T22:12:37.725Z,2.40
2018-01-07T22:15:05.197Z,2.40
2018-01-07T22:17:33.413Z,2.40
2018-01-07T22:20:00.902Z,2.40
2018-01-07T22:22:28.394Z,2.40
2018-01-07T22:24:56.631Z,2.40
2018-01-07T22:27:24.098Z,2.40
2018-01-07T22:29:52.330Z,2.40
2018-01-07T22:32:19.805Z,2.40
2018-01-07T22:34:47.277Z,2.40
2018-01-07T22:37:14.754Z,2.40
2018-01-07T22:39:42.978Z,2.40
2018-01-07T22:42:10.528Z,2.40
2018-01-07T22:44:37.997Z,2.50
2018-01-07T22:47:05.458Z,2.40
2018-01-07T22:49:33.527Z,2.40
2018-01-07T22:52:00.991Z,2.50
2018-01-07T22:54:28.488Z,2.50
2018-01-07T22:56:56.711Z,2.50
2018-01-07T22:59:24.189Z,2.50
2018-01-07T23:01:51.662Z,2.50
2018-01-07T23:04:19.146Z,2.50
2018-01-07T23:06:46.626Z,2.50
2018-01-07T23:09:14.098Z,2.50
2018-01-07T23:11:41.558Z,2.60
2018-01-07T23:14:09.032Z,2.60
2018-01-07T23:16:36.506Z,2.60
2018-01-07T23:19:04.125Z,2.60
2018-01-07T23:21:31.578Z,2.60
2018-01-07T23:23:59.054Z,2.60
2018-01-07T23:26:26.582Z,2.60
2018-01-07T23:28:54.059Z,2.70
2018-01-07T23:31:21.528Z,2.60
2018-01-07T23:33:48.997Z,2.70
2018-01-07T23:36:16.477Z,2.70
2018-01-07T23:38:44.705Z,2.70
2018-01-07T23:41:12.174Z,2.70
2018-01-07T23:43:39.703Z,2.70
2018-01-07T23:46:07.169Z,2.70
2018-01-07T23:48:34.630Z,2.70
2018-01-07T23:51:02.097Z,2.70
2018-01-07T23:53:29.583Z,2.70
2018-01-07T23:55:57.805Z,2.70
2018-01-07T23:58:25.278Z,2.70
